sensor_id;sensor_type;location;lat;lon;timestamp;P1;durP1;ratioP1;P2;durP2;ratioP2
17592;SDS011;8915;51.760;14.300;2023-02-01T00:02:09;6.80;;;1.30;;
17592;SDS011;8915;51.760;14.300;2023-02-01T00:04:37;8.10;;;1.93;;
17592;SDS011;8915;51.760;14.300;2023-02-01T00:07:03;5.53;;;1.67;;
17592;SDS011;8915;51.760;14.300;2023-02-01T00:09:29;4.50;;;1.47;;
17592;SDS011;8915;51.760;14.300;2023-02-01T00:11:56;6.80;;;1.30;;
17592;SDS011;8915;51.760;14.300;2023-02-01T00:14:24;9.50;;;1.97;;
17592;SDS011;8915;51.760;14.300;2023-02-01T00:16:51;9.60;;;1.87;;
17592;SDS011;8915;51.760;14.300;2023-02-01T00:19:17;5.90;;;1.57;;
17592;SDS011;8915;51.760;14.300;2023-02-01T00:21:44;8.40;;;1.40;;
17592;SDS011;8915;51.760;14.300;2023-02-01T00:24:11;4.97;;;1.43;;
17592;SDS011;8915;51.760;14.300;2023-02-01T00:26:39;8.17;;;1.73;;
17592;SDS011;8915;51.760;14.300;2023-02-01T00:29:09;6.33;;;2.23;;
17592;SDS011;8915;51.760;14.300;2023-02-01T00:31:37;11.47;;;1.53;;
17592;SDS011;8915;51.760;14.300;2023-02-01T00:34:04;4.23;;;1.70;;
17592;SDS011;8915;51.760;14.300;2023-02-01T00:36:30;9.27;;;1.77;;
17592;SDS011;8915;51.760;14.300;2023-02-01T00:38:58;4.13;;;1.30;;
17592;SDS011;8915;51.760;14.300;2023-02-01T00:41:25;5.00;;;1.43;;
17592;SDS011;8915;51.760;14.300;2023-02-01T00:43:52;8.03;;;1.60;;
17592;SDS011;8915;51.760;14.300;2023-02-01T00:46:18;9.50;;;1.73;;
17592;SDS011;8915;51.760;14.300;2023-02-01T00:48:46;10.20;;;1.93;;
17592;SDS011;8915;51.760;14.300;2023-02-01T00:51:13;6.57;;;1.80;;
17592;SDS011;8915;51.760;14.300;2023-02-01T00:53:41;6.57;;;2.00;;
17592;SDS011;8915;51.760;14.300;2023-02-01T00:56:09;3.63;;;1.50;;
17592;SDS011;8915;51.760;14.300;2023-02-01T00:58:36;6.23;;;1.83;;
17592;SDS011;8915;51.760;14.300;2023-02-01T01:01:03;14.10;;;1.87;;
17592;SDS011;8915;51.760;14.300;2023-02-01T01:03:31;8.47;;;2.10;;
17592;SDS011;8915;51.760;14.300;2023-02-01T01:05:59;4.00;;;1.53;;
17592;SDS011;8915;51.760;14.300;2023-02-01T01:08:27;9.40;;;2.17;;
17592;SDS011;8915;51.760;14.300;2023-02-01T01:10:53;8.17;;;1.50;;
17592;SDS011;8915;51.760;14.300;2023-02-01T01:13:21;5.97;;;1.70;;
17592;SDS011;8915;51.760;14.300;2023-02-01T01:15:48;7.40;;;1.90;;
17592;SDS011;8915;51.760;14.300;2023-02-01T01:18:14;12.50;;;1.80;;
17592;SDS011;8915;51.760;14.300;2023-02-01T01:20:41;7.60;;;2.07;;
17592;SDS011;8915;51.760;14.300;2023-02-01T01:23:08;8.63;;;1.73;;
17592;SDS011;8915;51.760;14.300;2023-02-01T01:25:36;5.00;;;1.67;;
17592;SDS011;8915;51.760;14.300;2023-02-01T01:28:04;8.40;;;2.27;;
17592;SDS011;8915;51.760;14.300;2023-02-01T01:30:32;10.43;;;2.07;;
17592;SDS011;8915;51.760;14.300;2023-02-01T01:32:59;10.53;;;2.47;;
17592;SDS011;8915;51.760;14.300;2023-02-01T01:35:28;5.73;;;1.50;;
17592;SDS011;8915;51.760;14.300;2023-02-01T01:37:56;10.37;;;1.90;;
17592;SDS011;8915;51.760;14.300;2023-02-01T01:40:23;7.43;;;1.90;;
17592;SDS011;8915;51.760;14.300;2023-02-01T01:42:50;6.43;;;1.53;;
17592;SDS011;8915;51.760;14.300;2023-02-01T01:45:23;6.80;;;1.60;;
17592;SDS011;8915;51.760;14.300;2023-02-01T01:47:54;6.70;;;1.60;;
17592;SDS011;8915;51.760;14.300;2023-02-01T01:50:25;5.00;;;1.43;;
17592;SDS011;8915;51.760;14.300;2023-02-01T01:52:58;10.23;;;2.53;;
17592;SDS011;8915;51.760;14.300;2023-02-01T01:55:30;11.73;;;2.30;;
17592;SDS011;8915;51.760;14.300;2023-02-01T01:58:00;14.13;;;2.03;;
17592;SDS011;8915;51.760;14.300;2023-02-01T02:00:30;7.53;;;2.07;;
17592;SDS011;8915;51.760;14.300;2023-02-01T02:03:00;10.70;;;1.50;;
17592;SDS011;8915;51.760;14.300;2023-02-01T02:05:33;6.90;;;1.80;;
17592;SDS011;8915;51.760;14.300;2023-02-01T02:08:00;6.90;;;1.53;;
17592;SDS011;8915;51.760;14.300;2023-02-01T02:10:27;8.97;;;2.03;;
17592;SDS011;8915;51.760;14.300;2023-02-01T02:13:08;5.60;;;1.40;;
17592;SDS011;8915;51.760;14.300;2023-02-01T02:15:36;3.37;;;1.60;;
17592;SDS011;8915;51.760;14.300;2023-02-01T02:18:11;10.37;;;2.10;;
17592;SDS011;8915;51.760;14.300;2023-02-01T02:26:44;6.67;;;1.87;;
17592;SDS011;8915;51.760;14.300;2023-02-01T02:29:32;4.70;;;2.23;;
17592;SDS011;8915;51.760;14.300;2023-02-01T02:32:21;10.23;;;1.70;;
17592;SDS011;8915;51.760;14.300;2023-02-01T02:35:01;4.67;;;1.33;;
17592;SDS011;8915;51.760;14.300;2023-02-01T02:37:35;11.50;;;1.60;;
17592;SDS011;8915;51.760;14.300;2023-02-01T02:40:07;4.93;;;1.57;;
17592;SDS011;8915;51.760;14.300;2023-02-01T02:42:43;7.53;;;1.63;;
17592;SDS011;8915;51.760;14.300;2023-02-01T02:45:37;10.30;;;2.10;;
17592;SDS011;8915;51.760;14.300;2023-02-01T02:48:25;7.17;;;1.40;;
17592;SDS011;8915;51.760;14.300;2023-02-01T02:50:59;9.60;;;2.13;;
17592;SDS011;8915;51.760;14.300;2023-02-01T02:53:52;9.33;;;1.70;;
17592;SDS011;8915;51.760;14.300;2023-02-01T02:56:41;9.70;;;1.87;;
17592;SDS011;8915;51.760;14.300;2023-02-01T02:59:28;7.67;;;1.53;;
17592;SDS011;8915;51.760;14.300;2023-02-01T03:02:15;11.80;;;1.97;;
17592;SDS011;8915;51.760;14.300;2023-02-01T03:05:00;5.37;;;1.43;;
17592;SDS011;8915;51.760;14.300;2023-02-01T03:10:35;10.30;;;2.10;;
17592;SDS011;8915;51.760;14.300;2023-02-01T03:13:09;9.53;;;1.73;;
17592;SDS011;8915;51.760;14.300;2023-02-01T03:15:40;8.50;;;1.67;;
17592;SDS011;8915;51.760;14.300;2023-02-01T03:18:11;5.17;;;1.40;;
17592;SDS011;8915;51.760;14.300;2023-02-01T03:20:43;3.60;;;1.37;;
17592;SDS011;8915;51.760;14.300;2023-02-01T03:23:15;8.40;;;1.80;;
17592;SDS011;8915;51.760;14.300;2023-02-01T03:25:46;8.23;;;1.97;;
17592;SDS011;8915;51.760;14.300;2023-02-01T03:28:15;6.23;;;1.50;;
17592;SDS011;8915;51.760;14.300;2023-02-01T03:30:46;7.83;;;1.60;;
17592;SDS011;8915;51.760;14.300;2023-02-01T03:33:16;8.30;;;1.60;;
17592;SDS011;8915;51.760;14.300;2023-02-01T03:35:50;7.77;;;1.60;;
17592;SDS011;8915;51.760;14.300;2023-02-01T03:38:27;4.77;;;1.23;;
17592;SDS011;8915;51.760;14.300;2023-02-01T03:41:02;4.70;;;1.17;;
17592;SDS011;8915;51.760;14.300;2023-02-01T03:43:36;11.80;;;2.27;;
17592;SDS011;8915;51.760;14.300;2023-02-01T03:46:09;8.93;;;1.87;;
17592;SDS011;8915;51.760;14.300;2023-02-01T03:48:42;6.40;;;1.97;;
17592;SDS011;8915;51.760;14.300;2023-02-01T03:51:10;7.70;;;1.80;;
17592;SDS011;8915;51.760;14.300;2023-02-01T03:53:38;9.23;;;1.90;;
17592;SDS011;8915;51.760;14.300;2023-02-01T03:56:08;5.40;;;1.73;;
17592;SDS011;8915;51.760;14.300;2023-02-01T03:58:37;8.87;;;1.43;;
17592;SDS011;8915;51.760;14.300;2023-02-01T04:01:04;6.47;;;1.93;;
17592;SDS011;8915;51.760;14.300;2023-02-01T04:03:34;8.03;;;1.17;;
17592;SDS011;8915;51.760;14.300;2023-02-01T04:06:01;4.97;;;1.33;;
17592;SDS011;8915;51.760;14.300;2023-02-01T04:08:28;6.63;;;1.43;;
17592;SDS011;8915;51.760;14.300;2023-02-01T04:10:56;8.67;;;1.57;;
17592;SDS011;8915;51.760;14.300;2023-02-01T04:13:22;5.20;;;1.30;;
17592;SDS011;8915;51.760;14.300;2023-02-01T04:15:49;7.27;;;1.93;;
17592;SDS011;8915;51.760;14.300;2023-02-01T04:18:15;10.47;;;1.60;;
17592;SDS011;8915;51.760;14.300;2023-02-01T04:20:42;6.90;;;2.23;;
17592;SDS011;8915;51.760;14.300;2023-02-01T04:23:09;7.37;;;2.20;;
17592;SDS011;8915;51.760;14.300;2023-02-01T04:25:36;4.47;;;1.33;;
17592;SDS011;8915;51.760;14.300;2023-02-01T04:28:04;8.70;;;1.67;;
17592;SDS011;8915;51.760;14.300;2023-02-01T04:30:31;5.47;;;1.43;;
17592;SDS011;8915;51.760;14.300;2023-02-01T04:32:58;5.87;;;1.77;;
17592;SDS011;8915;51.760;14.300;2023-02-01T04:35:24;4.43;;;1.47;;
17592;SDS011;8915;51.760;14.300;2023-02-01T04:37:51;3.13;;;1.53;;
17592;SDS011;8915;51.760;14.300;2023-02-01T04:40:17;5.57;;;1.60;;
17592;SDS011;8915;51.760;14.300;2023-02-01T04:42:44;7.27;;;1.47;;
17592;SDS011;8915;51.760;14.300;2023-02-01T04:45:11;2.90;;;1.27;;
17592;SDS011;8915;51.760;14.300;2023-02-01T04:47:38;3.83;;;1.33;;
17592;SDS011;8915;51.760;14.300;2023-02-01T04:50:05;3.93;;;1.13;;
17592;SDS011;8915;51.760;14.300;2023-02-01T04:52:35;7.47;;;1.77;;
17592;SDS011;8915;51.760;14.300;2023-02-01T04:55:01;5.53;;;1.63;;
17592;SDS011;8915;51.760;14.300;2023-02-01T04:57:28;6.53;;;1.50;;
17592;SDS011;8915;51.760;14.300;2023-02-01T04:59:55;9.73;;;1.73;;
17592;SDS011;8915;51.760;14.300;2023-02-01T05:02:22;4.90;;;1.60;;
17592;SDS011;8915;51.760;14.300;2023-02-01T05:04:49;7.13;;;1.40;;
17592;SDS011;8915;51.760;14.300;2023-02-01T05:07:15;4.07;;;1.57;;
17592;SDS011;8915;51.760;14.300;2023-02-01T05:09:43;7.13;;;1.63;;
17592;SDS011;8915;51.760;14.300;2023-02-01T05:12:09;10.80;;;1.67;;
17592;SDS011;8915;51.760;14.300;2023-02-01T05:14:53;4.90;;;1.63;;
17592;SDS011;8915;51.760;14.300;2023-02-01T05:17:19;9.33;;;1.50;;
17592;SDS011;8915;51.760;14.300;2023-02-01T05:19:47;4.60;;;1.60;;
17592;SDS011;8915;51.760;14.300;2023-02-01T05:22:13;3.73;;;1.47;;
17592;SDS011;8915;51.760;14.300;2023-02-01T05:24:40;4.77;;;1.80;;
17592;SDS011;8915;51.760;14.300;2023-02-01T05:27:06;6.23;;;2.03;;
17592;SDS011;8915;51.760;14.300;2023-02-01T05:29:33;5.90;;;1.50;;
17592;SDS011;8915;51.760;14.300;2023-02-01T05:31:59;5.10;;;1.77;;
17592;SDS011;8915;51.760;14.300;2023-02-01T05:34:26;6.53;;;1.70;;
17592;SDS011;8915;51.760;14.300;2023-02-01T05:36:54;8.10;;;1.77;;
17592;SDS011;8915;51.760;14.300;2023-02-01T05:39:21;10.47;;;1.83;;
17592;SDS011;8915;51.760;14.300;2023-02-01T05:41:47;4.00;;;1.60;;
17592;SDS011;8915;51.760;14.300;2023-02-01T05:44:13;8.07;;;2.00;;
17592;SDS011;8915;51.760;14.300;2023-02-01T05:46:40;7.30;;;2.33;;
17592;SDS011;8915;51.760;14.300;2023-02-01T05:49:06;6.67;;;1.70;;
17592;SDS011;8915;51.760;14.300;2023-02-01T05:51:33;7.60;;;1.83;;
17592;SDS011;8915;51.760;14.300;2023-02-01T05:54:00;5.80;;;2.20;;
17592;SDS011;8915;51.760;14.300;2023-02-01T05:56:27;12.30;;;1.87;;
17592;SDS011;8915;51.760;14.300;2023-02-01T05:58:54;8.73;;;1.83;;
17592;SDS011;8915;51.760;14.300;2023-02-01T06:01:20;7.10;;;1.77;;
17592;SDS011;8915;51.760;14.300;2023-02-01T06:03:46;6.13;;;1.73;;
17592;SDS011;8915;51.760;14.300;2023-02-01T06:06:13;10.57;;;1.90;;
17592;SDS011;8915;51.760;14.300;2023-02-01T06:08:39;8.53;;;2.33;;
17592;SDS011;8915;51.760;14.300;2023-02-01T06:11:07;6.10;;;2.20;;
17592;SDS011;8915;51.760;14.300;2023-02-01T06:13:34;5.47;;;1.87;;
17592;SDS011;8915;51.760;14.300;2023-02-01T06:16:01;4.03;;;1.77;;
17592;SDS011;8915;51.760;14.300;2023-02-01T06:18:28;6.67;;;1.80;;
17592;SDS011;8915;51.760;14.300;2023-02-01T06:20:55;5.90;;;2.00;;
17592;SDS011;8915;51.760;14.300;2023-02-01T06:23:25;6.40;;;1.60;;
17592;SDS011;8915;51.760;14.300;2023-02-01T06:25:52;10.87;;;2.17;;
17592;SDS011;8915;51.760;14.300;2023-02-01T06:28:25;6.43;;;2.00;;
17592;SDS011;8915;51.760;14.300;2023-02-01T06:30:53;11.50;;;2.67;;
17592;SDS011;8915;51.760;14.300;2023-02-01T06:33:20;8.10;;;2.03;;
17592;SDS011;8915;51.760;14.300;2023-02-01T06:35:47;7.17;;;2.43;;
17592;SDS011;8915;51.760;14.300;2023-02-01T06:38:13;6.23;;;1.93;;
17592;SDS011;8915;51.760;14.300;2023-02-01T06:40:40;4.03;;;1.70;;
17592;SDS011;8915;51.760;14.300;2023-02-01T06:43:07;7.57;;;1.90;;
17592;SDS011;8915;51.760;14.300;2023-02-01T06:45:35;4.57;;;2.03;;
17592;SDS011;8915;51.760;14.300;2023-02-01T06:48:01;11.70;;;2.10;;
17592;SDS011;8915;51.760;14.300;2023-02-01T06:50:28;7.90;;;2.23;;
17592;SDS011;8915;51.760;14.300;2023-02-01T06:52:54;7.67;;;2.50;;
17592;SDS011;8915;51.760;14.300;2023-02-01T06:55:21;7.53;;;1.90;;
17592;SDS011;8915;51.760;14.300;2023-02-01T06:57:47;8.67;;;2.50;;
17592;SDS011;8915;51.760;14.300;2023-02-01T07:00:14;8.07;;;2.83;;
17592;SDS011;8915;51.760;14.300;2023-02-01T07:02:42;10.13;;;2.20;;
17592;SDS011;8915;51.760;14.300;2023-02-01T07:05:08;10.07;;;2.00;;
17592;SDS011;8915;51.760;14.300;2023-02-01T07:07:35;5.37;;;2.13;;
17592;SDS011;8915;51.760;14.300;2023-02-01T07:10:01;4.13;;;1.93;;
17592;SDS011;8915;51.760;14.300;2023-02-01T07:12:27;5.00;;;2.30;;
17592;SDS011;8915;51.760;14.300;2023-02-01T07:14:54;9.10;;;2.27;;
17592;SDS011;8915;51.760;14.300;2023-02-01T07:17:21;9.73;;;2.60;;
17592;SDS011;8915;51.760;14.300;2023-02-01T07:19:49;6.90;;;2.13;;
17592;SDS011;8915;51.760;14.300;2023-02-01T07:22:15;10.33;;;2.47;;
17592;SDS011;8915;51.760;14.300;2023-02-01T07:24:42;13.57;;;2.87;;
17592;SDS011;8915;51.760;14.300;2023-02-01T07:27:08;7.53;;;2.57;;
17592;SDS011;8915;51.760;14.300;2023-02-01T07:29:34;4.77;;;2.03;;
17592;SDS011;8915;51.760;14.300;2023-02-01T07:32:01;9.67;;;2.33;;
17592;SDS011;8915;51.760;14.300;2023-02-01T07:34:29;8.13;;;1.83;;
17592;SDS011;8915;51.760;14.300;2023-02-01T07:36:57;9.80;;;2.43;;
17592;SDS011;8915;51.760;14.300;2023-02-01T07:39:23;8.60;;;3.50;;
17592;SDS011;8915;51.760;14.300;2023-02-01T07:41:49;7.47;;;2.47;;
17592;SDS011;8915;51.760;14.300;2023-02-01T07:44:16;11.13;;;2.67;;
17592;SDS011;8915;51.760;14.300;2023-02-01T07:46:47;7.13;;;2.50;;
17592;SDS011;8915;51.760;14.300;2023-02-01T07:49:14;10.53;;;2.67;;
17592;SDS011;8915;51.760;14.300;2023-02-01T07:51:40;3.93;;;2.07;;
17592;SDS011;8915;51.760;14.300;2023-02-01T07:54:08;10.80;;;2.07;;
17592;SDS011;8915;51.760;14.300;2023-02-01T07:56:35;3.97;;;1.97;;
17592;SDS011;8915;51.760;14.300;2023-02-01T07:59:01;5.10;;;1.63;;
17592;SDS011;8915;51.760;14.300;2023-02-01T08:01:29;8.33;;;2.30;;
17592;SDS011;8915;51.760;14.300;2023-02-01T08:03:55;11.03;;;2.50;;
17592;SDS011;8915;51.760;14.300;2023-02-01T08:06:24;8.50;;;2.07;;
17592;SDS011;8915;51.760;14.300;2023-02-01T08:08:51;5.83;;;2.10;;
17592;SDS011;8915;51.760;14.300;2023-02-01T08:11:20;8.20;;;1.80;;
17592;SDS011;8915;51.760;14.300;2023-02-01T08:13:47;9.97;;;1.93;;
17592;SDS011;8915;51.760;14.300;2023-02-01T08:16:15;11.13;;;2.97;;
17592;SDS011;8915;51.760;14.300;2023-02-01T08:18:42;12.10;;;2.67;;
17592;SDS011;8915;51.760;14.300;2023-02-01T08:21:10;10.37;;;2.43;;
17592;SDS011;8915;51.760;14.300;2023-02-01T08:23:37;8.10;;;2.37;;
17592;SDS011;8915;51.760;14.300;2023-02-01T08:26:06;10.60;;;2.27;;
17592;SDS011;8915;51.760;14.300;2023-02-01T08:28:35;8.73;;;2.60;;
17592;SDS011;8915;51.760;14.300;2023-02-01T08:31:05;8.93;;;2.00;;
17592;SDS011;8915;51.760;14.300;2023-02-01T08:33:34;4.53;;;2.07;;
17592;SDS011;8915;51.760;14.300;2023-02-01T08:36:02;10.03;;;2.63;;
17592;SDS011;8915;51.760;14.300;2023-02-01T08:38:29;8.77;;;2.37;;
17592;SDS011;8915;51.760;14.300;2023-02-01T08:40:55;4.73;;;2.03;;
17592;SDS011;8915;51.760;14.300;2023-02-01T08:43:24;11.97;;;2.87;;
17592;SDS011;8915;51.760;14.300;2023-02-01T08:45:54;9.90;;;2.70;;
17592;SDS011;8915;51.760;14.300;2023-02-01T08:48:21;7.77;;;2.17;;
17592;SDS011;8915;51.760;14.300;2023-02-01T08:50:48;4.17;;;2.00;;
17592;SDS011;8915;51.760;14.300;2023-02-01T08:53:14;8.60;;;2.53;;
17592;SDS011;8915;51.760;14.300;2023-02-01T08:55:40;8.40;;;2.03;;
17592;SDS011;8915;51.760;14.300;2023-02-01T08:58:07;12.73;;;2.47;;
17592;SDS011;8915;51.760;14.300;2023-02-01T09:00:33;8.90;;;2.20;;
17592;SDS011;8915;51.760;14.300;2023-02-01T09:03:01;9.27;;;2.93;;
17592;SDS011;8915;51.760;14.300;2023-02-01T09:05:27;3.97;;;2.03;;
17592;SDS011;8915;51.760;14.300;2023-02-01T09:07:54;7.87;;;2.53;;
17592;SDS011;8915;51.760;14.300;2023-02-01T09:10:20;8.30;;;2.60;;
17592;SDS011;8915;51.760;14.300;2023-02-01T09:12:46;5.23;;;2.00;;
17592;SDS011;8915;51.760;14.300;2023-02-01T09:15:13;6.73;;;2.87;;
17592;SDS011;8915;51.760;14.300;2023-02-01T09:17:40;6.13;;;2.00;;
17592;SDS011;8915;51.760;14.300;2023-02-01T09:20:10;9.63;;;3.40;;
17592;SDS011;8915;51.760;14.300;2023-02-01T09:22:37;8.30;;;2.63;;
17592;SDS011;8915;51.760;14.300;2023-02-01T09:25:04;9.90;;;3.23;;
17592;SDS011;8915;51.760;14.300;2023-02-01T09:27:31;7.53;;;3.13;;
17592;SDS011;8915;51.760;14.300;2023-02-01T09:29:57;6.97;;;3.03;;
17592;SDS011;8915;51.760;14.300;2023-02-01T09:32:24;18.27;;;9.07;;
17592;SDS011;8915;51.760;14.300;2023-02-01T09:34:50;10.17;;;2.40;;
17592;SDS011;8915;51.760;14.300;2023-02-01T09:37:19;7.27;;;2.00;;
17592;SDS011;8915;51.760;14.300;2023-02-01T09:39:46;3.13;;;2.40;;
17592;SDS011;8915;51.760;14.300;2023-02-01T09:42:19;8.23;;;2.30;;
17592;SDS011;8915;51.760;14.300;2023-02-01T09:44:56;5.20;;;2.50;;
17592;SDS011;8915;51.760;14.300;2023-02-01T09:47:33;5.33;;;2.73;;
17592;SDS011;8915;51.760;14.300;2023-02-01T09:50:02;6.83;;;2.60;;
17592;SDS011;8915;51.760;14.300;2023-02-01T09:52:44;5.70;;;2.60;;
17592;SDS011;8915;51.760;14.300;2023-02-01T09:55:16;7.50;;;2.60;;
17592;SDS011;8915;51.760;14.300;2023-02-01T09:57:48;3.57;;;2.37;;
17592;SDS011;8915;51.760;14.300;2023-02-01T10:00:20;4.77;;;2.07;;
17592;SDS011;8915;51.760;14.300;2023-02-01T10:02:50;6.87;;;2.50;;
17592;SDS011;8915;51.760;14.300;2023-02-01T10:05:21;6.10;;;2.57;;
17592;SDS011;8915;51.760;14.300;2023-02-01T10:08:03;5.37;;;2.37;;
17592;SDS011;8915;51.760;14.300;2023-02-01T10:10:38;7.00;;;2.63;;
17592;SDS011;8915;51.760;14.300;2023-02-01T10:13:13;7.17;;;2.50;;
17592;SDS011;8915;51.760;14.300;2023-02-01T10:15:54;5.47;;;2.20;;
17592;SDS011;8915;51.760;14.300;2023-02-01T10:18:51;4.90;;;2.40;;
17592;SDS011;8915;51.760;14.300;2023-02-01T10:21:33;5.10;;;2.03;;
17592;SDS011;8915;51.760;14.300;2023-02-01T10:27:19;5.77;;;2.30;;
17592;SDS011;8915;51.760;14.300;2023-02-01T10:29:48;4.17;;;2.13;;
17592;SDS011;8915;51.760;14.300;2023-02-01T10:32:20;9.23;;;2.57;;
17592;SDS011;8915;51.760;14.300;2023-02-01T10:34:50;4.23;;;2.60;;
17592;SDS011;8915;51.760;14.300;2023-02-01T10:37:23;6.00;;;2.87;;
17592;SDS011;8915;51.760;14.300;2023-02-01T10:39:54;5.77;;;1.83;;
17592;SDS011;8915;51.760;14.300;2023-02-01T10:42:25;4.67;;;1.97;;
17592;SDS011;8915;51.760;14.300;2023-02-01T10:44:53;3.50;;;2.60;;
17592;SDS011;8915;51.760;14.300;2023-02-01T10:47:22;4.53;;;1.90;;
17592;SDS011;8915;51.760;14.300;2023-02-01T10:49:49;2.80;;;2.13;;
17592;SDS011;8915;51.760;14.300;2023-02-01T10:52:23;3.80;;;2.40;;
17592;SDS011;8915;51.760;14.300;2023-02-01T10:58:15;6.20;;;2.30;;
17592;SDS011;8915;51.760;14.300;2023-02-01T11:00:45;6.30;;;3.23;;
17592;SDS011;8915;51.760;14.300;2023-02-01T11:03:30;11.17;;;5.33;;
17592;SDS011;8915;51.760;14.300;2023-02-01T11:05:59;7.53;;;3.67;;
17592;SDS011;8915;51.760;14.300;2023-02-01T11:08:27;13.13;;;4.77;;
17592;SDS011;8915;51.760;14.300;2023-02-01T11:10:57;14.17;;;6.83;;
17592;SDS011;8915;51.760;14.300;2023-02-01T11:13:29;10.70;;;5.60;;
17592;SDS011;8915;51.760;14.300;2023-02-01T11:15:56;8.60;;;4.13;;
17592;SDS011;8915;51.760;14.300;2023-02-01T11:18:25;19.33;;;7.53;;
17592;SDS011;8915;51.760;14.300;2023-02-01T11:20:53;10.17;;;4.93;;
17592;SDS011;8915;51.760;14.300;2023-02-01T11:23:21;5.83;;;2.60;;
17592;SDS011;8915;51.760;14.300;2023-02-01T11:25:51;4.80;;;2.33;;
17592;SDS011;8915;51.760;14.300;2023-02-01T11:28:20;8.57;;;3.43;;
17592;SDS011;8915;51.760;14.300;2023-02-01T11:30:51;3.10;;;2.20;;
17592;SDS011;8915;51.760;14.300;2023-02-01T11:33:22;5.70;;;2.00;;
17592;SDS011;8915;51.760;14.300;2023-02-01T11:35:54;2.10;;;1.47;;
17592;SDS011;8915;51.760;14.300;2023-02-01T11:38:25;5.43;;;2.23;;
17592;SDS011;8915;51.760;14.300;2023-02-01T11:40:54;5.40;;;2.10;;
17592;SDS011;8915;51.760;14.300;2023-02-01T11:43:22;6.30;;;1.83;;
17592;SDS011;8915;51.760;14.300;2023-02-01T11:45:55;5.73;;;2.30;;
17592;SDS011;8915;51.760;14.300;2023-02-01T11:48:24;5.37;;;2.40;;
17592;SDS011;8915;51.760;14.300;2023-02-01T11:50:54;7.23;;;1.70;;
17592;SDS011;8915;51.760;14.300;2023-02-01T11:53:48;3.40;;;1.60;;
17592;SDS011;8915;51.760;14.300;2023-02-01T11:56:29;1.53;;;1.23;;
17592;SDS011;8915;51.760;14.300;2023-02-01T11:59:08;4.87;;;1.30;;
17592;SDS011;8915;51.760;14.300;2023-02-01T12:01:47;3.57;;;1.73;;
17592;SDS011;8915;51.760;14.300;2023-02-01T12:07:35;3.37;;;1.40;;
17592;SDS011;8915;51.760;14.300;2023-02-01T12:12:43;3.73;;;1.40;;
17592;SDS011;8915;51.760;14.300;2023-02-01T12:15:24;5.47;;;1.30;;
17592;SDS011;8915;51.760;14.300;2023-02-01T12:18:03;2.67;;;1.17;;
17592;SDS011;8915;51.760;14.300;2023-02-01T12:20:50;3.90;;;1.47;;
17592;SDS011;8915;51.760;14.300;2023-02-01T12:23:33;4.43;;;1.27;;
17592;SDS011;8915;51.760;14.300;2023-02-01T12:26:13;1.77;;;1.00;;
17592;SDS011;8915;51.760;14.300;2023-02-01T12:29:10;4.20;;;1.13;;
17592;SDS011;8915;51.760;14.300;2023-02-01T12:31:50;3.93;;;1.10;;
17592;SDS011;8915;51.760;14.300;2023-02-01T12:34:29;2.80;;;1.27;;
17592;SDS011;8915;51.760;14.300;2023-02-01T12:37:13;3.40;;;1.37;;
17592;SDS011;8915;51.760;14.300;2023-02-01T12:40:08;1.20;;;1.10;;
17592;SDS011;8915;51.760;14.300;2023-02-01T12:42:50;3.40;;;1.30;;
17592;SDS011;8915;51.760;14.300;2023-02-01T12:45:25;2.47;;;1.77;;
17592;SDS011;8915;51.760;14.300;2023-02-01T12:47:57;6.97;;;1.30;;
17592;SDS011;8915;51.760;14.300;2023-02-01T12:50:33;3.90;;;1.40;;
17592;SDS011;8915;51.760;14.300;2023-02-01T12:53:06;5.07;;;1.63;;
17592;SDS011;8915;51.760;14.300;2023-02-01T12:55:41;3.63;;;1.37;;
17592;SDS011;8915;51.760;14.300;2023-02-01T12:58:14;5.27;;;1.50;;
17592;SDS011;8915;51.760;14.300;2023-02-01T13:00:44;5.30;;;1.47;;
17592;SDS011;8915;51.760;14.300;2023-02-01T13:03:17;4.13;;;1.43;;
17592;SDS011;8915;51.760;14.300;2023-02-01T13:05:55;5.17;;;1.70;;
17592;SDS011;8915;51.760;14.300;2023-02-01T13:08:29;2.77;;;1.20;;
17592;SDS011;8915;51.760;14.300;2023-02-01T13:11:04;5.13;;;1.30;;
17592;SDS011;8915;51.760;14.300;2023-02-01T13:13:39;2.20;;;1.30;;
17592;SDS011;8915;51.760;14.300;2023-02-01T13:16:14;2.73;;;1.20;;
17592;SDS011;8915;51.760;14.300;2023-02-01T13:18:46;4.00;;;1.13;;
17592;SDS011;8915;51.760;14.300;2023-02-01T13:21:18;2.60;;;1.33;;
17592;SDS011;8915;51.760;14.300;2023-02-01T13:23:48;2.40;;;1.37;;
17592;SDS011;8915;51.760;14.300;2023-02-01T13:26:16;1.73;;;1.00;;
17592;SDS011;8915;51.760;14.300;2023-02-01T13:28:44;2.93;;;1.20;;
17592;SDS011;8915;51.760;14.300;2023-02-01T13:31:21;1.47;;;1.30;;
17592;SDS011;8915;51.760;14.300;2023-02-01T13:33:59;4.00;;;1.90;;
17592;SDS011;8915;51.760;14.300;2023-02-01T13:36:46;2.07;;;1.10;;
17592;SDS011;8915;51.760;14.300;2023-02-01T13:39:26;5.80;;;2.17;;
17592;SDS011;8915;51.760;14.300;2023-02-01T13:42:11;2.63;;;1.40;;
17592;SDS011;8915;51.760;14.300;2023-02-01T13:44:43;4.60;;;1.47;;
17592;SDS011;8915;51.760;14.300;2023-02-01T13:47:13;3.60;;;1.33;;
17592;SDS011;8915;51.760;14.300;2023-02-01T13:49:52;3.20;;;1.37;;
17592;SDS011;8915;51.760;14.300;2023-02-01T13:52:25;2.73;;;1.17;;
17592;SDS011;8915;51.760;14.300;2023-02-01T13:57:51;3.40;;;1.57;;
17592;SDS011;8915;51.760;14.300;2023-02-01T14:00:31;2.53;;;1.10;;
17592;SDS011;8915;51.760;14.300;2023-02-01T14:03:07;4.57;;;1.73;;
17592;SDS011;8915;51.760;14.300;2023-02-01T14:06:01;7.37;;;1.80;;
17592;SDS011;8915;51.760;14.300;2023-02-01T14:08:41;4.67;;;1.50;;
17592;SDS011;8915;51.760;14.300;2023-02-01T14:14:06;3.40;;;1.43;;
17592;SDS011;8915;51.760;14.300;2023-02-01T14:19:47;3.10;;;1.37;;
17592;SDS011;8915;51.760;14.300;2023-02-01T14:25:01;6.00;;;1.40;;
17592;SDS011;8915;51.760;14.300;2023-02-01T14:27:28;2.23;;;0.93;;
17592;SDS011;8915;51.760;14.300;2023-02-01T14:30:00;5.03;;;1.83;;
17592;SDS011;8915;51.760;14.300;2023-02-01T14:32:33;5.17;;;1.33;;
17592;SDS011;8915;51.760;14.300;2023-02-01T14:35:05;9.07;;;1.50;;
17592;SDS011;8915;51.760;14.300;2023-02-01T14:37:34;2.83;;;1.70;;
17592;SDS011;8915;51.760;14.300;2023-02-01T14:40:04;4.60;;;1.57;;
17592;SDS011;8915;51.760;14.300;2023-02-01T14:42:43;5.57;;;1.40;;
17592;SDS011;8915;51.760;14.300;2023-02-01T14:51:09;4.20;;;1.10;;
17592;SDS011;8915;51.760;14.300;2023-02-01T14:53:39;3.50;;;1.50;;
17592;SDS011;8915;51.760;14.300;2023-02-01T14:56:11;3.73;;;1.50;;
17592;SDS011;8915;51.760;14.300;2023-02-01T14:58:41;4.27;;;1.17;;
17592;SDS011;8915;51.760;14.300;2023-02-01T15:01:15;2.27;;;1.17;;
17592;SDS011;8915;51.760;14.300;2023-02-01T15:03:47;3.67;;;1.40;;
17592;SDS011;8915;51.760;14.300;2023-02-01T15:06:24;4.80;;;1.40;;
17592;SDS011;8915;51.760;14.300;2023-02-01T15:08:57;3.83;;;1.63;;
17592;SDS011;8915;51.760;14.300;2023-02-01T15:11:27;4.47;;;1.43;;
17592;SDS011;8915;51.760;14.300;2023-02-01T15:13:54;2.37;;;1.07;;
17592;SDS011;8915;51.760;14.300;2023-02-01T15:16:22;4.17;;;1.50;;
17592;SDS011;8915;51.760;14.300;2023-02-01T15:18:50;3.77;;;1.40;;
17592;SDS011;8915;51.760;14.300;2023-02-01T15:21:18;4.90;;;1.43;;
17592;SDS011;8915;51.760;14.300;2023-02-01T15:23:45;2.37;;;1.47;;
17592;SDS011;8915;51.760;14.300;2023-02-01T15:26:24;4.13;;;1.20;;
17592;SDS011;8915;51.760;14.300;2023-02-01T15:28:52;2.83;;;1.40;;
17592;SDS011;8915;51.760;14.300;2023-02-01T15:31:31;5.20;;;1.60;;
17592;SDS011;8915;51.760;14.300;2023-02-01T15:33:59;6.20;;;2.10;;
17592;SDS011;8915;51.760;14.300;2023-02-01T15:36:26;5.60;;;1.60;;
17592;SDS011;8915;51.760;14.300;2023-02-01T15:41:43;5.10;;;2.10;;
17592;SDS011;8915;51.760;14.300;2023-02-01T15:44:16;5.07;;;1.73;;
17592;SDS011;8915;51.760;14.300;2023-02-01T15:46:47;3.70;;;2.00;;
17592;SDS011;8915;51.760;14.300;2023-02-01T15:49:21;4.93;;;1.60;;